Time;durP1;ratioP1;P1;durP2;ratioP2;P2;SDS_P1;SDS_P2;PMS_P1;PMS_P2;Temp;Humidity;BMP_temperature;BMP_pressure;BME280_temperature;BME280_humidity;BME280_pressure;Samples;Min_cycle;Max_cycle;Signal;HPM_P1;HPM_P2
2022/08/21 00:01:51;;;;;;;1.83;0.40;;;15.40;99.90;;;;;;5062626;28;20526;-76
2022/08/21 00:04:17;;;;;;;3.13;0.50;;;15.30;99.90;;;;;;5079043;28;20119;-76
2022/08/21 00:06:42;;;;;;;1.73;0.45;;;15.30;99.90;;;;;;5083063;28;20366;-76
2022/08/21 00:09:09;;;;;;;1.92;0.40;;;15.10;99.90;;;;;;5068516;28;20043;-76
2022/08/21 00:11:37;;;;;;;1.23;0.40;;;15.20;99.90;;;;;;5078694;28;20488;-76
2022/08/21 00:14:05;;;;;;;2.03;0.40;;;15.10;99.90;;;;;;5079898;28;20036;-76
2022/08/21 00:16:31;;;;;;;1.63;0.50;;;15.10;99.90;;;;;;5070533;28;20048;-76
2022/08/21 00:18:57;;;;;;;1.50;0.40;;;15.00;99.90;;;;;;5083455;28;20515;-76
2022/08/21 00:21:23;;;;;;;1.83;0.60;;;15.10;99.90;;;;;;5077149;28;20127;-76
2022/08/21 00:23:48;;;;;;;1.40;0.40;;;15.10;99.90;;;;;;5078135;28;20104;-76
2022/08/21 00:26:14;;;;;;;2.78;0.40;;;15.10;99.90;;;;;;5070236;28;20536;-76
2022/08/21 00:28:40;;;;;;;2.28;0.50;;;15.00;99.90;;;;;;5086272;28;20062;-76
2022/08/21 00:31:05;;;;;;;1.20;0.50;;;14.90;99.90;;;;;;5074417;28;20063;-76
2022/08/21 00:33:31;;;;;;;2.70;0.50;;;14.90;99.90;;;;;;5082030;28;20365;-76
2022/08/21 00:35:57;;;;;;;2.20;0.70;;;14.90;99.90;;;;;;5064936;28;20024;-76
2022/08/21 00:38:23;;;;;;;1.48;0.43;;;14.90;99.90;;;;;;5065219;28;20483;-77
2022/08/21 00:40:53;;;;;;;2.67;0.50;;;14.80;99.90;;;;;;5068651;28;20074;-76
2022/08/21 00:43:22;;;;;;;1.90;0.50;;;14.80;99.90;;;;;;5061633;28;20500;-76
2022/08/21 00:45:48;;;;;;;1.90;0.50;;;14.80;99.90;;;;;;5080141;28;20036;-76
2022/08/21 00:48:14;;;;;;;2.28;0.52;;;14.80;99.90;;;;;;5075796;28;20649;-77
2022/08/21 00:50:45;;;;;;;1.67;0.50;;;14.70;99.90;;;;;;5079430;28;20029;-76
2022/08/21 00:53:13;;;;;;;1.98;0.50;;;14.70;99.90;;;;;;5084459;28;20051;-77
2022/08/21 00:55:39;;;;;;;2.20;0.43;;;14.80;99.90;;;;;;5086871;28;20035;-76
2022/08/21 00:58:08;;;;;;;2.55;0.50;;;14.60;99.90;;;;;;5071410;28;20036;-77
2022/08/21 01:00:38;;;;;;;1.35;0.40;;;14.60;99.90;;;;;;5080431;28;20044;-77
2022/08/21 01:03:11;;;;;;;2.35;0.50;;;14.50;99.90;;;;;;5081025;28;20043;-76
2022/08/21 01:05:38;;;;;;;1.98;0.50;;;14.60;99.90;;;;;;5076823;28;20020;-77
2022/08/21 01:08:05;;;;;;;2.03;0.50;;;14.50;99.90;;;;;;5079797;28;20027;-76
2022/08/21 01:10:32;;;;;;;2.33;0.50;;;14.50;99.90;;;;;;5078948;28;20055;-76
2022/08/21 01:12:58;;;;;;;1.52;0.47;;;14.40;99.90;;;;;;5093104;28;20495;-77
2022/08/21 01:15:32;;;;;;;1.17;0.40;;;14.50;99.90;;;;;;5075590;28;20428;-76
2022/08/21 01:17:57;;;;;;;1.80;0.50;;;14.40;99.90;;;;;;5085249;28;20103;-77
2022/08/21 01:20:24;;;;;;;1.30;0.47;;;14.40;99.90;;;;;;5081463;28;20116;-76
2022/08/21 01:22:49;;;;;;;1.55;0.47;;;14.30;99.90;;;;;;5061345;28;20056;-76
2022/08/21 01:25:16;;;;;;;2.10;0.50;;;14.30;99.90;;;;;;5069089;28;20097;-76
2022/08/21 01:27:43;;;;;;;3.10;0.40;;;14.30;99.90;;;;;;5079936;28;20036;-77
2022/08/21 01:30:20;;;;;;;1.95;0.50;;;14.30;99.90;;;;;;5092668;28;20396;-77
2022/08/21 01:32:47;;;;;;;1.23;0.50;;;14.20;99.90;;;;;;5055732;28;20028;-76
2022/08/21 01:35:15;;;;;;;2.33;0.50;;;14.30;99.90;;;;;;5085378;28;20452;-76
2022/08/21 01:37:41;;;;;;;1.85;0.50;;;14.20;99.90;;;;;;5078738;28;20021;-77
2022/08/21 01:40:08;;;;;;;1.98;0.50;;;14.30;99.90;;;;;;5078565;28;20040;-76
2022/08/21 01:42:33;;;;;;;1.52;0.50;;;14.20;99.90;;;;;;5067832;28;20110;-76
2022/08/21 01:44:59;;;;;;;1.30;0.60;;;14.20;99.90;;;;;;5078349;28;20111;-77
2022/08/21 01:47:25;;;;;;;1.95;0.40;;;14.20;99.90;;;;;;5059296;28;20124;-76
2022/08/21 01:49:50;;;;;;;2.45;0.65;;;14.10;99.90;;;;;;5079014;28;20032;-76
2022/08/21 01:52:16;;;;;;;2.35;0.50;;;14.20;99.90;;;;;;5083628;28;20111;-76
2022/08/21 01:54:42;;;;;;;1.58;0.50;;;14.10;99.90;;;;;;5075760;28;20412;-76
2022/08/21 01:57:08;;;;;;;1.27;0.57;;;14.10;99.90;;;;;;5081722;28;20028;-77
2022/08/21 01:59:34;;;;;;;1.67;0.50;;;14.00;99.90;;;;;;5077835;28;20063;-77
2022/08/21 02:02:00;;;;;;;1.55;0.60;;;14.00;99.90;;;;;;5081510;28;20031;-77
2022/08/21 02:04:26;;;;;;;3.03;0.50;;;14.10;99.90;;;;;;5086031;28;20104;-76
2022/08/21 02:06:52;;;;;;;1.60;0.50;;;14.10;99.90;;;;;;5085339;28;20063;-77
2022/08/21 02:09:18;;;;;;;1.30;0.43;;;14.00;99.90;;;;;;5086040;28;20069;-77
2022/08/21 02:11:44;;;;;;;1.25;0.50;;;14.00;99.90;;;;;;5077094;28;20016;-77
2022/08/21 02:14:11;;;;;;;1.63;0.50;;;14.00;99.90;;;;;;5061195;28;20214;-77
2022/08/21 02:16:38;;;;;;;1.15;0.55;;;13.90;99.90;;;;;;5073980;28;20480;-77
2022/08/21 02:19:04;;;;;;;2.60;0.50;;;14.00;99.90;;;;;;5084410;28;20033;-76
2022/08/21 02:21:30;;;;;;;1.95;0.50;;;13.90;99.90;;;;;;5076310;28;20028;-76
2022/08/21 02:23:56;;;;;;;1.00;0.50;;;13.90;99.90;;;;;;5075418;28;20047;-77
2022/08/21 02:26:22;;;;;;;1.38;0.45;;;14.00;99.90;;;;;;5079246;28;20109;-77
2022/08/21 02:28:48;;;;;;;1.30;0.60;;;13.90;99.90;;;;;;5076833;28;20032;-76
2022/08/21 02:31:14;;;;;;;1.20;0.52;;;13.90;99.90;;;;;;5077433;28;20078;-77
2022/08/21 02:33:40;;;;;;;2.67;0.50;;;13.90;99.90;;;;;;5079359;28;20087;-76
2022/08/21 02:36:07;;;;;;;1.27;0.50;;;13.90;99.90;;;;;;5077329;28;20024;-76
2022/08/21 02:38:37;;;;;;;1.27;0.40;;;13.80;99.90;;;;;;5086322;28;20468;-77
2022/08/21 02:41:04;;;;;;;;;;;13.70;99.90;;;;;;5084318;28;20139;-77
2022/08/21 02:43:29;;;;;;;2.15;0.50;;;13.70;99.90;;;;;;5077714;28;19958;-76
2022/08/21 02:45:56;;;;;;;2.25;0.50;;;13.80;99.90;;;;;;5061432;28;20028;-76
2022/08/21 02:48:25;;;;;;;1.33;0.50;;;13.80;99.90;;;;;;5084900;28;20052;-77
2022/08/21 02:51:04;;;;;;;1.70;0.40;;;13.80;99.90;;;;;;5067595;28;20029;-77
2022/08/21 02:53:31;;;;;;;1.97;0.47;;;13.80;99.90;;;;;;5079377;28;20024;-76
2022/08/21 02:56:00;;;;;;;1.75;0.50;;;13.60;99.90;;;;;;5075273;28;20293;-77
2022/08/21 02:58:31;;;;;;;1.25;0.50;;;13.70;99.90;;;;;;5077696;28;20063;-77
2022/08/21 03:00:57;;;;;;;1.52;0.50;;;13.60;99.90;;;;;;5079229;28;20028;-76
2022/08/21 03:03:24;;;;;;;2.33;0.60;;;13.60;99.90;;;;;;5057802;28;20086;-76
2022/08/21 03:05:50;;;;;;;1.83;0.50;;;13.50;99.90;;;;;;5075992;28;20365;-76
2022/08/21 03:08:18;;;;;;;1.30;0.50;;;13.70;99.90;;;;;;5077969;28;20051;-77
2022/08/21 03:10:48;;;;;;;1.77;0.57;;;13.70;99.90;;;;;;5076781;28;20020;-76
2022/08/21 03:13:15;;;;;;;1.85;0.68;;;13.70;99.90;;;;;;5073733;28;20032;-76
2022/08/21 03:15:41;;;;;;;1.80;0.52;;;13.60;99.90;;;;;;5081422;28;20032;-76
2022/08/21 03:18:08;;;;;;;1.55;0.50;;;13.60;99.90;;;;;;5078291;28;20032;-76
2022/08/21 03:20:35;;;;;;;1.83;0.50;;;13.60;99.90;;;;;;5084354;28;20071;-76
2022/08/21 03:23:03;;;;;;;1.50;0.43;;;13.60;99.90;;;;;;5062335;28;20021;-76
2022/08/21 03:25:31;;;;;;;1.65;0.50;;;13.60;99.90;;;;;;5079602;28;20039;-76
2022/08/21 03:27:57;;;;;;;1.30;0.60;;;13.40;99.90;;;;;;5060196;28;20037;-76
2022/08/21 03:30:23;;;;;;;2.05;0.60;;;13.50;99.90;;;;;;5064178;28;20595;-76
2022/08/21 03:32:50;;;;;;;1.92;0.50;;;13.50;99.90;;;;;;5078071;28;20115;-76
2022/08/21 03:35:17;;;;;;;2.88;0.60;;;13.60;99.90;;;;;;5073709;28;20056;-77
2022/08/21 03:37:43;;;;;;;3.30;0.88;;;13.50;99.90;;;;;;5067043;28;20029;-76
2022/08/21 03:40:10;;;;;;;1.42;0.45;;;13.50;99.90;;;;;;5071551;28;20448;-77
2022/08/21 03:42:35;;;;;;;2.70;0.70;;;13.50;99.90;;;;;;5076190;28;20039;-77
2022/08/21 03:45:02;;;;;;;1.70;0.95;;;13.50;99.90;;;;;;5083242;28;20024;-77
2022/08/21 03:47:27;;;;;;;1.50;0.60;;;13.40;99.90;;;;;;5078854;28;20032;-77
2022/08/21 03:49:54;;;;;;;2.42;0.60;;;13.40;99.90;;;;;;5075091;28;20078;-77
2022/08/21 03:52:19;;;;;;;1.60;0.57;;;13.40;99.90;;;;;;5075932;28;20032;-76
2022/08/21 03:54:46;;;;;;;1.50;0.50;;;13.30;99.90;;;;;;5083776;28;20032;-76
2022/08/21 03:57:12;;;;;;;1.85;0.60;;;13.30;99.90;;;;;;5067938;28;20063;-76
2022/08/21 03:59:39;;;;;;;1.70;0.65;;;13.30;99.90;;;;;;5075968;28;20043;-77
2022/08/21 04:02:06;;;;;;;1.17;0.50;;;13.30;99.90;;;;;;5075567;28;20028;-76
2022/08/21 04:04:33;;;;;;;1.63;0.60;;;13.30;99.90;;;;;;5076849;28;20469;-76
2022/08/21 04:06:58;;;;;;;1.20;0.50;;;13.20;99.90;;;;;;5074511;28;20052;-76
2022/08/21 04:09:25;;;;;;;3.13;0.80;;;13.20;99.90;;;;;;5083134;28;20094;-76
2022/08/21 04:11:50;;;;;;;3.35;0.70;;;13.10;99.90;;;;;;5074316;28;20025;-76
2022/08/21 04:14:17;;;;;;;1.17;0.50;;;13.10;99.90;;;;;;5067890;28;20043;-76
2022/08/21 04:16:44;;;;;;;2.80;0.70;;;13.10;99.90;;;;;;5077144;28;20089;-76
2022/08/21 04:19:12;;;;;;;2.17;0.70;;;13.10;99.90;;;;;;5058535;28;20147;-77
2022/08/21 04:21:39;;;;;;;2.90;0.63;;;13.00;99.90;;;;;;5073200;28;20032;-76
2022/08/21 04:24:07;;;;;;;2.22;0.60;;;13.00;99.90;;;;;;5085258;28;20531;-76
2022/08/21 04:26:34;;;;;;;1.77;0.68;;;13.10;99.90;;;;;;5086596;28;20060;-76
2022/08/21 04:29:00;;;;;;;2.08;0.60;;;13.00;99.90;;;;;;5077302;28;20047;-76
2022/08/21 04:31:28;;;;;;;1.60;0.60;;;13.10;99.90;;;;;;5080368;28;20526;-76
2022/08/21 04:33:54;;;;;;;1.30;0.60;;;13.10;99.90;;;;;;5078190;28;20044;-76
2022/08/21 04:36:20;;;;;;;2.33;0.55;;;13.10;99.90;;;;;;5079228;28;20071;-76
2022/08/21 04:38:47;;;;;;;1.98;0.80;;;13.00;99.90;;;;;;5086804;28;20067;-76
2022/08/21 04:41:14;;;;;;;3.30;0.60;;;13.00;99.90;;;;;;5066787;28;20531;-76
2022/08/21 04:43:41;;;;;;;3.60;0.90;;;13.00;99.90;;;;;;5082112;28;20024;-77
2022/08/21 04:46:07;;;;;;;2.33;0.70;;;13.00;99.90;;;;;;5078444;28;20024;-77
2022/08/21 04:48:32;;;;;;;2.17;0.50;;;13.10;99.90;;;;;;5075954;28;20044;-77
2022/08/21 04:51:01;;;;;;;1.45;0.52;;;13.20;99.90;;;;;;5091067;28;20112;-77
2022/08/21 04:53:31;;;;;;;2.63;0.63;;;13.10;99.90;;;;;;5085665;28;20426;-77
2022/08/21 04:56:01;;;;;;;1.50;0.52;;;13.20;99.90;;;;;;5082763;28;20043;-78
2022/08/21 04:58:27;;;;;;;1.92;0.60;;;13.20;99.90;;;;;;5078866;28;20039;-77
2022/08/21 05:00:57;;;;;;;1.90;0.60;;;13.20;99.90;;;;;;5080368;28;20440;-77
2022/08/21 05:03:24;;;;;;;3.67;0.68;;;13.30;99.90;;;;;;5080715;28;20115;-77
2022/08/21 05:05:50;;;;;;;1.80;0.50;;;13.30;99.90;;;;;;5078414;28;20024;-77
2022/08/21 05:08:21;;;;;;;2.50;0.60;;;13.30;99.90;;;;;;5079202;28;20044;-77
2022/08/21 05:10:47;;;;;;;1.98;0.77;;;13.30;99.90;;;;;;5079619;28;20119;-77
2022/08/21 05:13:13;;;;;;;2.42;0.70;;;13.40;99.90;;;;;;5082629;28;20043;-77
2022/08/21 05:15:40;;;;;;;2.15;0.60;;;13.60;99.90;;;;;;5075535;28;21021;-77
2022/08/21 05:18:06;;;;;;;1.90;0.70;;;13.50;99.90;;;;;;5083552;28;20393;-77
2022/08/21 05:20:34;;;;;;;2.75;0.75;;;13.50;99.90;;;;;;5085360;28;20461;-77
2022/08/21 05:23:00;;;;;;;1.60;0.63;;;13.50;99.90;;;;;;5069520;28;20060;-77
2022/08/21 05:25:26;;;;;;;1.40;0.50;;;13.50;99.90;;;;;;5069303;28;20043;-77
2022/08/21 05:27:53;;;;;;;3.17;0.60;;;13.70;99.90;;;;;;5062607;28;20473;-77
2022/08/21 05:30:19;;;;;;;3.25;0.60;;;13.70;99.90;;;;;;5080664;28;20019;-76
2022/08/21 05:32:45;;;;;;;2.63;0.80;;;13.80;99.90;;;;;;5076484;28;20100;-77
2022/08/21 05:35:11;;;;;;;2.38;0.80;;;13.80;99.90;;;;;;5077896;28;20086;-77
2022/08/21 05:37:37;;;;;;;1.75;0.77;;;13.80;99.90;;;;;;5061297;28;20024;-78
2022/08/21 05:40:04;;;;;;;1.58;0.70;;;13.80;99.90;;;;;;5083459;28;20049;-77
2022/08/21 05:42:30;;;;;;;3.28;0.98;;;13.90;99.90;;;;;;5066268;28;20426;-77
2022/08/21 05:44:56;;;;;;;4.32;2.13;;;14.10;99.90;;;;;;5076755;28;20110;-77
2022/08/21 05:47:21;;;;;;;4.70;2.47;;;14.10;99.90;;;;;;5077421;28;20155;-77
2022/08/21 05:49:48;;;;;;;4.75;1.70;;;14.20;99.90;;;;;;5073883;28;20492;-77
2022/08/21 05:52:19;;;;;;;3.55;2.10;;;14.20;99.90;;;;;;5057382;28;20043;-77
2022/08/21 05:54:45;;;;;;;4.75;2.60;;;14.30;99.90;;;;;;5078009;28;20572;-77
2022/08/21 05:57:11;;;;;;;4.82;2.50;;;14.40;99.90;;;;;;5077985;28;20103;-77
2022/08/21 05:59:37;;;;;;;4.93;3.15;;;14.50;99.90;;;;;;5075836;28;20377;-77
2022/08/21 06:02:03;;;;;;;4.60;2.72;;;14.50;99.90;;;;;;5074559;28;20066;-77
2022/08/21 06:04:29;;;;;;;4.47;3.88;;;14.50;99.90;;;;;;5077242;28;20089;-77
2022/08/21 06:06:55;;;;;;;3.78;3.13;;;14.60;99.90;;;;;;5076639;28;20540;-77
2022/08/21 06:09:21;;;;;;;5.28;4.03;;;14.70;99.90;;;;;;5076107;28;20373;-76
2022/08/21 06:11:46;;;;;;;8.02;6.55;;;14.70;99.90;;;;;;5076427;28;20028;-77
2022/08/21 06:14:16;;;;;;;5.93;5.32;;;14.90;99.90;;;;;;5074059;28;20097;-77
2022/08/21 06:16:42;;;;;;;5.40;4.20;;;14.90;99.90;;;;;;5072944;28;20503;-77
2022/08/21 06:19:07;;;;;;;6.57;3.90;;;15.10;99.90;;;;;;5076971;28;20032;-76
2022/08/21 06:21:33;;;;;;;7.25;6.05;;;15.10;99.90;;;;;;5075655;28;20031;-77
2022/08/21 06:23:59;;;;;;;6.72;5.40;;;15.30;99.90;;;;;;5074028;28;20028;-76
2022/08/21 06:26:24;;;;;;;6.18;5.60;;;15.40;99.90;;;;;;5076229;28;20198;-77
2022/08/21 06:28:50;;;;;;;7.05;5.07;;;15.60;99.90;;;;;;5075261;28;20090;-77
2022/08/21 06:31:21;;;;;;;4.80;4.10;;;15.70;99.90;;;;;;5074310;28;20033;-77
2022/08/21 06:33:47;;;;;;;;;;;15.90;99.90;;;;;;5066301;28;20093;-77
2022/08/21 06:36:13;;;;;;;7.72;4.70;;;16.10;99.90;;;;;;5080426;28;19916;-77
2022/08/21 06:38:39;;;;;;;7.07;6.20;;;16.20;99.90;;;;;;5075961;28;20035;-78
2022/08/21 06:41:05;;;;;;;7.88;6.30;;;16.40;99.90;;;;;;5075520;28;20081;-77
2022/08/21 06:43:31;;;;;;;7.70;5.55;;;16.40;99.90;;;;;;5080390;28;20469;-77
2022/08/21 06:45:56;;;;;;;10.20;7.50;;;16.70;99.90;;;;;;5073658;28;20034;-77
2022/08/21 06:48:22;;;;;;;7.50;5.72;;;16.70;99.90;;;;;;5081064;28;20029;-77
2022/08/21 06:50:48;;;;;;;10.55;7.13;;;17.00;99.90;;;;;;5075768;28;20026;-78
2022/08/21 06:53:16;;;;;;;6.47;4.65;;;17.10;99.90;;;;;;5077599;28;20488;-78
2022/08/21 06:55:43;;;;;;;4.45;3.88;;;17.50;99.90;;;;;;5074476;28;20025;-77
2022/08/21 06:58:09;;;;;;;6.07;4.30;;;17.70;99.90;;;;;;5075563;28;20100;-76
2022/08/21 07:00:39;;;;;;;6.82;4.40;;;17.80;99.90;;;;;;5074114;28;20067;-77
2022/08/21 07:03:04;;;;;;;4.88;2.70;;;17.90;99.90;;;;;;5073290;28;20017;-77
2022/08/21 07:05:30;;;;;;;9.77;6.68;;;18.00;99.90;;;;;;5057756;28;20527;-77
2022/08/21 07:07:57;;;;;;;6.90;5.55;;;18.00;99.90;;;;;;5075649;28;20016;-77
2022/08/21 07:10:26;;;;;;;9.43;6.30;;;18.00;99.90;;;;;;5084442;28;20046;-77
2022/08/21 07:12:54;;;;;;;12.32;6.22;;;18.00;99.90;;;;;;5084003;28;20030;-78
2022/08/21 07:15:20;;;;;;;12.80;6.78;;;18.00;99.90;;;;;;5075027;28;20456;-78
2022/08/21 07:17:46;;;;;;;8.77;4.45;;;18.10;99.90;;;;;;5073379;28;20053;-78
2022/08/21 07:20:11;;;;;;;9.68;5.43;;;18.20;99.90;;;;;;5058686;28;20036;-78
2022/08/21 07:22:38;;;;;;;8.18;3.47;;;18.30;99.90;;;;;;5061201;28;20027;-77
2022/08/21 07:25:06;;;;;;;14.50;5.75;;;18.60;99.90;;;;;;5075540;28;20061;-77
2022/08/21 07:27:31;;;;;;;11.68;5.40;;;18.50;99.90;;;;;;5074541;28;20070;-77
2022/08/21 07:29:58;;;;;;;8.40;3.50;;;18.30;99.90;;;;;;5076612;28;20036;-77
2022/08/21 07:32:24;;;;;;;6.25;2.10;;;18.80;99.90;;;;;;5077885;28;20056;-76
2022/08/21 07:34:49;;;;;;;4.93;1.65;;;19.40;99.90;;;;;;5072103;28;20063;-77
2022/08/21 07:37:15;;;;;;;4.07;1.08;;;19.70;99.90;;;;;;5076999;28;20025;-77
2022/08/21 07:39:41;;;;;;;4.38;1.83;;;20.00;99.90;;;;;;5083751;28;20040;-77
2022/08/21 07:42:06;;;;;;;5.40;1.13;;;20.00;99.90;;;;;;5076192;28;20460;-78
2022/08/21 07:44:34;;;;;;;6.28;1.95;;;20.10;99.90;;;;;;5073998;28;20120;-77
2022/08/21 07:47:00;;;;;;;6.13;2.35;;;20.10;99.90;;;;;;5058817;28;20027;-77
2022/08/21 07:49:26;;;;;;;6.55;1.55;;;20.20;99.90;;;;;;5075265;28;20432;-77
2022/08/21 07:51:52;;;;;;;4.28;0.98;;;20.70;99.90;;;;;;5083562;28;20035;-79
2022/08/21 07:54:18;;;;;;;4.78;0.82;;;20.60;99.90;;;;;;5076759;28;20107;-78
2022/08/21 07:56:43;;;;;;;3.42;1.20;;;20.80;99.90;;;;;;5076845;28;20469;-78
2022/08/21 07:59:09;;;;;;;8.90;1.90;;;20.90;99.90;;;;;;5083284;28;20085;-79
2022/08/21 08:01:35;;;;;;;5.65;2.05;;;20.70;99.90;;;;;;5083980;28;20081;-77
2022/08/21 08:04:00;;;;;;;5.47;1.25;;;20.60;99.90;;;;;;5080196;28;20389;-78
2022/08/21 08:06:26;;;;;;;4.45;0.95;;;20.90;99.90;;;;;;5080559;28;20367;-78
2022/08/21 08:08:52;;;;;;;4.90;1.30;;;21.60;99.90;;;;;;5081869;28;20029;-78
2022/08/21 08:11:17;;;;;;;3.60;0.82;;;22.00;99.90;;;;;;5086157;28;20494;-78
2022/08/21 08:13:46;;;;;;;4.15;1.02;;;22.00;99.90;;;;;;5087882;28;20035;-78
2022/08/21 08:16:13;;;;;;;10.97;2.23;;;21.50;99.90;;;;;;5095365;28;20131;-78
2022/08/21 08:18:39;;;;;;;7.72;2.17;;;20.50;99.90;;;;;;5079261;28;20024;-80
2022/08/21 08:21:05;;;;;;;7.15;2.42;;;20.30;99.90;;;;;;5077106;28;20388;-79
2022/08/21 08:23:31;;;;;;;6.57;1.60;;;20.10;99.90;;;;;;5079811;28;20039;-78
2022/08/21 08:25:58;;;;;;;13.38;3.03;;;20.20;99.90;;;;;;5079647;28;20024;-78
2022/08/21 08:28:24;;;;;;;6.03;1.20;;;19.60;99.90;;;;;;5082731;28;20101;-77
2022/08/21 08:30:50;;;;;;;6.38;1.00;;;19.90;99.90;;;;;;5079466;28;20357;-78
2022/08/21 08:33:16;;;;;;;12.98;3.83;;;20.60;99.90;;;;;;5076679;28;20082;-78
2022/08/21 08:35:47;;;;;;;10.90;3.45;;;20.50;99.90;;;;;;5078668;28;20040;-79
2022/08/21 08:38:18;;;;;;;7.60;2.78;;;20.30;99.90;;;;;;5087550;28;20123;-77
2022/08/21 08:40:43;;;;;;;7.82;2.90;;;20.60;99.90;;;;;;5085573;28;20055;-78
2022/08/21 08:43:11;;;;;;;9.80;2.78;;;20.50;99.90;;;;;;5077486;28;20042;-78
2022/08/21 08:45:40;;;;;;;5.43;0.90;;;21.00;99.90;;;;;;5079484;28;20028;-78
2022/08/21 08:48:09;;;;;;;5.50;2.03;;;21.80;99.90;;;;;;5080050;28;20035;-78
2022/08/21 08:50:54;;;;;;;4.20;1.33;;;21.60;99.90;;;;;;5079355;28;20028;-77
2022/08/21 08:53:34;;;;;;;7.35;1.88;;;22.50;99.90;;;;;;5079040;28;20032;-78
2022/08/21 08:56:02;;;;;;;6.43;1.33;;;22.20;99.90;;;;;;5076933;28;20107;-77
2022/08/21 08:58:36;;;;;;;4.55;1.75;;;22.50;99.90;;;;;;5081428;28;20061;-78
2022/08/21 09:01:11;;;;;;;5.22;1.40;;;22.20;99.90;;;;;;5079594;28;20461;-77
2022/08/21 09:03:39;;;;;;;6.47;2.28;;;22.40;99.90;;;;;;5082916;28;20024;-76
2022/08/21 09:06:18;;;;;;;4.35;0.80;;;22.30;99.90;;;;;;5080176;28;20085;-78
2022/08/21 09:08:54;;;;;;;6.05;1.10;;;23.10;99.90;;;;;;5077112;28;20115;-77
2022/08/21 09:11:34;;;;;;;6.65;1.40;;;23.30;99.90;;;;;;5076088;28;20119;-78
2022/08/21 09:14:03;;;;;;;;;;;22.80;99.90;;;;;;5077665;28;20048;-78
2022/08/21 09:16:47;;;;;;;3.65;1.05;;;23.30;99.90;;;;;;5077999;28;20375;-78
2022/08/21 09:19:53;;;;;;;6.25;1.42;;;23.10;99.90;;;;;;5075758;28;20020;-79
2022/08/21 09:22:48;;;;;;;6.28;0.82;;;22.70;99.90;;;;;;5068603;28;20032;-77
2022/08/21 09:25:22;;;;;;;2.58;0.50;;;23.90;99.90;;;;;;5070023;28;20515;-77
2022/08/21 09:27:48;;;;;;;3.05;0.40;;;24.50;99.90;;;;;;5078864;28;20024;-77
2022/08/21 09:30:14;;;;;;;2.03;0.40;;;24.80;99.90;;;;;;5077633;28;20055;-78
2022/08/21 09:32:41;;;;;;;6.07;1.10;;;25.00;99.90;;;;;;5064646;28;20089;-79
2022/08/21 09:35:15;;;;;;;3.15;0.50;;;23.40;99.90;;;;;;5074668;28;20069;-78
2022/08/21 09:37:58;;;;;;;7.55;0.70;;;23.80;99.90;;;;;;5064210;28;20472;-77
2022/08/21 09:40:32;;;;;;;7.13;0.73;;;24.00;99.90;;;;;;5079094;28;20409;-79
2022/08/21 09:43:01;;;;;;;5.07;1.45;;;22.70;99.90;;;;;;5067651;28;20051;-78
2022/08/21 09:45:28;;;;;;;2.75;0.50;;;22.30;99.90;;;;;;5091859;28;20544;-78
2022/08/21 09:47:53;;;;;;;4.15;0.47;;;23.30;99.90;;;;;;5075515;28;20051;-76
2022/08/21 09:50:26;;;;;;;5.15;0.40;;;24.30;99.90;;;;;;5073670;28;20481;-77
2022/08/21 09:52:58;;;;;;;6.18;0.82;;;24.00;99.90;;;;;;5076892;28;20051;-80
2022/08/21 09:58:36;;;;;;;3.47;0.50;;;23.40;99.90;;;;;;5075164;28;20116;-79
2022/08/21 10:01:05;;;;;;;3.17;0.30;;;24.20;99.90;;;;;;5089220;28;20025;-79
2022/08/21 10:03:31;;;;;;;4.00;0.50;;;25.00;99.90;;;;;;5080771;28;20043;-78
2022/08/21 10:06:05;;;;;;;3.40;0.30;;;24.30;99.90;;;;;;5083882;28;20028;-77
2022/08/21 10:08:32;;;;;;;1.23;0.30;;;25.20;99.90;;;;;;5077057;28;20032;-78
2022/08/21 10:11:10;;;;;;;6.28;0.60;;;25.00;99.90;;;;;;5077980;28;20024;-77
2022/08/21 10:14:04;;;;;;;3.08;0.40;;;23.70;99.90;;;;;;5073119;28;20161;-79
2022/08/21 10:16:57;;;;;;;3.47;0.40;;;24.10;99.90;;;;;;5077926;28;20115;-78
2022/08/21 10:20:08;;;;;;;2.90;0.30;;;23.00;99.90;;;;;;5073992;28;20037;-79
2022/08/21 10:23:15;;;;;;;3.65;0.30;;;22.60;99.90;;;;;;5075712;28;20029;-78
2022/08/21 10:25:53;;;;;;;3.97;0.40;;;22.50;99.90;;;;;;5007920;28;20049;-79
2022/08/21 10:28:39;;;;;;;5.82;0.45;;;22.60;99.90;;;;;;5008949;28;20045;-78
2022/08/21 10:31:23;;;;;;;5.07;0.65;;;22.30;99.90;;;;;;4991540;28;20491;-79
2022/08/21 10:34:06;;;;;;;3.47;0.63;;;22.80;99.90;;;;;;5025145;28;20049;-79
2022/08/21 10:36:41;;;;;;;2.78;0.30;;;23.80;99.90;;;;;;5024846;28;20476;-78
2022/08/21 10:39:31;;;;;;;2.45;0.30;;;24.10;99.90;;;;;;5008109;28;20028;-79
2022/08/21 10:42:14;;;;;;;1.20;0.20;;;25.10;99.90;;;;;;5024315;28;20045;-78
2022/08/21 10:44:58;;;;;;;2.65;0.25;;;24.50;99.90;;;;;;5024159;28;20202;-77
2022/08/21 10:47:34;;;;;;;1.98;0.30;;;24.30;99.90;;;;;;5024549;28;20041;-76
2022/08/21 10:50:21;;;;;;;1.63;0.20;;;24.20;99.90;;;;;;5007186;28;20049;-78
2022/08/21 10:53:22;;;;;;;1.48;0.20;;;25.10;99.90;;;;;;5008126;28;20418;-79
2022/08/21 10:56:09;;;;;;;1.10;0.20;;;25.70;99.90;;;;;;5005732;28;20075;-76
2022/08/21 10:58:43;;;;;;;1.92;0.20;;;25.90;99.90;;;;;;5024474;28;20091;-79
2022/08/21 11:01:28;;;;;;;2.88;0.30;;;26.10;99.90;;;;;;5043464;28;20108;-78
2022/08/21 11:04:24;;;;;;;3.67;0.30;;;25.90;99.90;;;;;;5074666;28;20024;-78
2022/08/21 11:06:58;;;;;;;3.33;0.28;;;25.60;99.90;;;;;;5075605;28;20152;-78
2022/08/21 11:09:26;;;;;;;1.95;0.30;;;25.90;99.90;;;;;;5067491;28;20047;-77
2022/08/21 11:12:01;;;;;;;1.45;0.20;;;25.60;99.90;;;;;;5091333;28;20480;-77
2022/08/21 11:14:41;;;;;;;1.75;0.30;;;26.50;99.90;;;;;;5078125;28;20115;-79
2022/08/21 11:17:11;;;;;;;;;;;25.60;99.90;;;;;;5076006;28;20119;-78
2022/08/21 11:20:04;;;;;;;1.73;0.20;;;26.20;99.90;;;;;;5074247;28;19912;-78
2022/08/21 11:22:56;;;;;;;3.22;0.40;;;26.20;99.90;;;;;;5077297;28;20020;-78
2022/08/21 11:25:39;;;;;;;4.13;0.30;;;25.10;99.90;;;;;;5056629;28;20032;-78
2022/08/21 11:28:22;;;;;;;2.63;0.30;;;25.10;99.90;;;;;;5073009;28;20488;-77
2022/08/21 11:31:13;;;;;;;3.05;0.30;;;25.00;99.90;;;;;;5077791;28;20032;-76
2022/08/21 11:34:06;;;;;;;3.92;0.30;;;24.00;99.90;;;;;;5078936;28;20025;-78
2022/08/21 11:36:53;;;;;;;2.78;0.30;;;23.60;99.90;;;;;;5080726;28;20043;-76
2022/08/21 11:39:49;;;;;;;3.30;0.30;;;24.00;99.90;;;;;;5085936;28;20484;-77
2022/08/21 11:42:33;;;;;;;3.30;0.30;;;24.90;99.90;;;;;;5081775;28;20031;-77
2022/08/21 11:45:01;;;;;;;2.42;0.40;;;24.90;99.90;;;;;;5068629;28;20119;-78
2022/08/21 11:47:38;;;;;;;2.20;0.30;;;24.70;99.90;;;;;;5086121;28;20032;-79
2022/08/21 11:50:18;;;;;;;1.60;0.30;;;25.40;99.90;;;;;;5076347;28;20046;-76
2022/08/21 11:52:56;;;;;;;;;;;26.60;99.90;;;;;;5082899;28;20051;-78
2022/08/21 11:55:22;;;;;;;2.35;0.30;;;26.60;99.90;;;;;;5076492;28;19909;-76
2022/08/21 11:58:05;;;;;;;2.45;0.30;;;25.50;99.90;;;;;;5064442;28;22043;-77
2022/08/21 12:00:51;;;;;;;2.00;0.20;;;25.10;99.90;;;;;;5071751;28;20380;-79
2022/08/21 12:03:25;;;;;;;2.22;0.20;;;25.70;99.90;;;;;;5081544;28;20036;-78
2022/08/21 12:05:59;;;;;;;2.47;0.35;;;26.20;99.90;;;;;;5062976;28;20126;-77
2022/08/21 12:08:56;;;;;;;3.55;0.30;;;25.90;99.90;;;;;;5082524;28;20120;-78
2022/08/21 12:11:25;;;;;;;2.17;0.30;;;26.50;99.90;;;;;;5080902;28;20039;-79
2022/08/21 12:14:11;;;;;;;3.25;0.20;;;26.00;99.90;;;;;;5078743;28;20020;-80
2022/08/21 12:16:39;;;;;;;2.53;0.30;;;26.50;99.90;;;;;;5079143;28;20036;-79
2022/08/21 12:19:12;;;;;;;2.13;0.20;;;25.60;99.90;;;;;;5087879;28;20066;-78
2022/08/21 12:21:56;;;;;;;1.52;0.20;;;25.30;99.90;;;;;;5063094;28;20032;-79
2022/08/21 12:24:42;;;;;;;1.63;0.15;;;25.90;99.90;;;;;;5079875;28;20025;-79
2022/08/21 12:27:30;;;;;;;1.63;0.20;;;26.30;99.90;;;;;;5086679;28;20094;-79
2022/08/21 12:30:00;;;;;;;1.83;0.20;;;26.20;99.90;;;;;;5065682;28;20125;-78
2022/08/21 12:32:42;;;;;;;2.38;0.20;;;24.90;99.90;;;;;;5077784;28;20025;-79
2022/08/21 12:35:21;;;;;;;1.48;0.20;;;24.40;99.90;;;;;;5081154;28;20055;-79
2022/08/21 12:38:17;;;;;;;1.40;0.20;;;24.70;99.90;;;;;;5062532;28;20028;-79
2022/08/21 12:41:12;;;;;;;1.52;0.20;;;25.40;99.90;;;;;;5066220;28;20544;-77
2022/08/21 12:43:42;;;;;;;1.77;0.30;;;25.90;99.90;;;;;;5075306;28;20108;-77
2022/08/21 12:46:14;;;;;;;;;;;26.00;99.90;;;;;;5076298;28;20052;-77
2022/08/21 12:48:58;;;;;;;2.22;0.40;;;26.20;99.90;;;;;;5079480;28;19916;-78
2022/08/21 12:51:36;;;;;;;1.60;0.20;;;26.90;99.90;;;;;;5081214;28;20545;-79
2022/08/21 12:54:01;;;;;;;1.55;0.10;;;26.90;99.90;;;;;;5064555;28;20035;-79
2022/08/21 12:56:33;;;;;;;1.00;0.20;;;26.80;99.90;;;;;;5085868;28;20020;-77
2022/08/21 12:59:07;;;;;;;2.10;0.20;;;27.30;99.90;;;;;;5066442;28;20029;-78
2022/08/21 13:01:45;;;;;;;2.97;0.30;;;26.80;99.90;;;;;;5077581;28;20078;-80
2022/08/21 13:04:17;;;;;;;1.60;0.20;;;26.60;99.90;;;;;;5077346;28;20059;-78
2022/08/21 13:06:46;;;;;;;2.38;0.30;;;25.80;99.90;;;;;;5070415;28;20139;-78
2022/08/21 13:09:15;;;;;;;3.13;0.30;;;26.10;99.90;;;;;;5072160;28;20051;-79